createdAt,value
2022-09-28T03:01:51.439Z,6.85
2022-09-28T03:04:22.484Z,5.85
2022-09-28T03:06:54.245Z,6.28
2022-09-28T03:09:25.658Z,6.67
2022-09-28T03:11:55.026Z,6.35
2022-09-28T03:14:22.883Z,8.57
2022-09-28T03:16:51.695Z,10.25
2022-09-28T03:19:22.301Z,10.90
2022-09-28T03:21:49.973Z,8.17
2022-09-28T03:24:17.482Z,8.00
2022-09-28T03:26:45.001Z,8.55
2022-09-28T03:29:12.474Z,6.70
2022-09-28T03:31:40.182Z,7.47
2022-09-28T03:34:09.074Z,7.60
2022-09-28T03:36:36.684Z,8.15
2022-09-28T03:39:04.460Z,8.98
2022-09-28T03:41:31.957Z,9.57
2022-09-28T03:43:59.448Z,7.22
2022-09-28T03:46:27.426Z,9.93
2022-09-28T03:48:57.667Z,7.25
2022-09-28T03:51:26.608Z,10.30
2022-09-28T03:53:54.109Z,8.50
2022-09-28T03:56:21.606Z,8.88
2022-09-28T03:58:49.109Z,6.53
2022-09-28T04:01:17.890Z,7.18
2022-09-28T04:03:46.089Z,7.45
2022-09-28T04:06:14.082Z,6.55
2022-09-28T04:08:43.370Z,18.17
2022-09-28T04:11:11.188Z,9.20
2022-09-28T04:13:38.711Z,15.90
2022-09-28T04:16:06.605Z,13.82
2022-09-28T04:18:35.275Z,18.35
2022-09-28T04:21:06.619Z,27.48
2022-09-28T04:23:34.617Z,18.57
2022-09-28T04:26:03.999Z,27.50
2022-09-28T04:28:49.001Z,15.43
2022-09-28T04:31:18.410Z,26.30
2022-09-28T04:33:45.977Z,26.20
2022-09-28T04:36:13.692Z,12.23
2022-09-28T04:38:52.810Z,17.58
2022-09-28T04:41:22.856Z,19.13
2022-09-28T04:43:50.474Z,18.98
2022-09-28T04:46:18.154Z,7.65
2022-09-28T04:48:45.660Z,18.57
2022-09-28T04:51:13.144Z,18.48
2022-09-28T04:53:40.647Z,12.15
2022-09-28T04:56:09.300Z,15.68
2022-09-28T04:58:38.616Z,19.30
2022-09-28T05:01:07.020Z,34.63
2022-09-28T05:03:35.134Z,15.38
2022-09-28T05:06:02.824Z,15.45
2022-09-28T05:08:30.353Z,31.27
2022-09-28T05:10:58.509Z,30.80
2022-09-28T05:13:27.422Z,7.87
2022-09-28T05:15:59.678Z,6.50
2022-09-28T05:18:29.380Z,15.50
2022-09-28T05:20:56.843Z,8.63
2022-09-28T05:23:24.331Z,7.82
2022-09-28T05:25:51.884Z,11.60
2022-09-28T05:28:23.376Z,14.77
2022-09-28T05:30:50.882Z,8.57
2022-09-28T05:33:19.831Z,13.77
2022-09-28T05:35:52.477Z,19.77
2022-09-28T05:38:21.411Z,12.07
2022-09-28T05:40:48.951Z,21.63
2022-09-28T05:43:16.532Z,8.02
2022-09-28T05:45:44.062Z,13.80
2022-09-28T05:48:11.592Z,19.77
2022-09-28T05:50:40.581Z,10.43
2022-09-28T05:53:09.116Z,25.15
2022-09-28T05:55:37.344Z,9.30
2022-09-28T05:58:06.252Z,29.23
2022-09-28T06:00:34.673Z,24.75
2022-09-28T06:03:06.717Z,14.10
2022-09-28T06:05:36.590Z,49.45
2022-09-28T06:08:06.015Z,50.45
2022-09-28T06:10:34.157Z,29.90
2022-09-28T06:13:02.176Z,41.65
2022-09-28T06:15:30.605Z,16.07
2022-09-28T06:17:58.740Z,15.02
2022-09-28T06:20:26.542Z,24.10
2022-09-28T06:22:54.500Z,7.07
2022-09-28T06:25:23.672Z,11.80
2022-09-28T06:27:58.274Z,20.33
2022-09-28T06:30:27.183Z,18.00
2022-09-28T06:32:56.227Z,15.75
2022-09-28T06:35:24.185Z,16.33
2022-09-28T06:37:51.796Z,7.75
2022-09-28T06:40:19.793Z,35.97
2022-09-28T06:42:57.049Z,8.65
2022-09-28T06:45:25.365Z,14.43
2022-09-28T06:47:57.449Z,6.43
2022-09-28T06:50:25.448Z,16.75
2022-09-28T06:52:53.640Z,9.77
2022-09-28T06:55:21.246Z,10.98
2022-09-28T06:57:49.049Z,16.70
2022-09-28T07:00:18.025Z,11.07
2022-09-28T07:02:45.589Z,20.95
2022-09-28T07:05:13.768Z,17.17
2022-09-28T07:07:42.893Z,13.13
2022-09-28T07:10:10.849Z,11.60
2022-09-28T07:12:38.349Z,14.38
2022-09-28T07:15:07.282Z,24.13
2022-09-28T07:17:47.563Z,16.57
2022-09-28T07:20:22.282Z,17.35
2022-09-28T07:22:53.581Z,8.00
2022-09-28T07:25:21.115Z,24.15
2022-09-28T07:27:48.625Z,9.05
2022-09-28T07:30:16.684Z,25.03
2022-09-28T07:32:48.446Z,14.05
2022-09-28T07:35:16.043Z,15.52
2022-09-28T07:37:43.523Z,13.43
2022-09-28T07:40:28.662Z,13.18
2022-09-28T07:42:56.215Z,10.40
2022-09-28T07:45:24.822Z,14.50
2022-09-28T07:47:55.479Z,16.23
2022-09-28T07:50:23.003Z,18.92
2022-09-28T07:52:50.523Z,13.88
2022-09-28T07:55:18.163Z,8.27
2022-09-28T07:57:47.042Z,14.63
2022-09-28T08:00:15.111Z,7.40
2022-09-28T08:02:42.705Z,6.65
2022-09-28T08:05:12.589Z,11.27
2022-09-28T08:07:40.106Z,11.47
2022-09-28T08:10:08.077Z,11.82
2022-09-28T08:12:35.931Z,9.05
2022-09-28T08:15:04.437Z,10.02
2022-09-28T08:17:31.929Z,6.20
2022-09-28T08:20:30.369Z,16.80
2022-09-28T08:23:03.440Z,9.07
2022-09-28T08:25:30.929Z,10.25
2022-09-28T08:27:58.420Z,6.40
2022-09-28T08:30:26.759Z,6.43
2022-09-28T08:32:54.294Z,6.90
2022-09-28T08:35:22.193Z,6.93
2022-09-28T08:37:54.724Z,8.38
2022-09-28T08:40:26.101Z,6.18
2022-09-28T08:42:56.174Z,6.35
2022-09-28T08:45:26.888Z,9.30
2022-09-28T08:48:13.965Z,7.85
2022-09-28T08:50:46.986Z,9.02
2022-09-28T08:53:18.478Z,6.80
2022-09-28T08:55:47.816Z,8.00
2022-09-28T08:58:18.141Z,6.60
2022-09-28T09:00:48.008Z,6.97
2022-09-28T09:03:17.310Z,7.93
2022-09-28T09:05:49.366Z,7.28
2022-09-28T09:08:25.263Z,7.72
2022-09-28T09:10:57.828Z,9.43
2022-09-28T09:13:34.165Z,9.00
2022-09-28T09:16:04.255Z,7.65
2022-09-28T09:18:37.067Z,8.20
2022-09-28T09:21:09.050Z,7.40
2022-09-28T09:23:38.396Z,6.93
2022-09-28T09:26:14.611Z,8.73
2022-09-28T09:28:57.401Z,7.72
2022-09-28T09:31:34.199Z,8.85
2022-09-28T09:34:08.460Z,9.25
2022-09-28T09:36:39.642Z,7.83
2022-09-28T09:39:18.036Z,8.40
2022-09-28T09:41:52.287Z,8.38
2022-09-28T09:44:35.072Z,8.18
2022-09-28T09:47:08.164Z,8.50
2022-09-28T09:49:37.622Z,9.27
2022-09-28T09:52:08.782Z,8.82
2022-09-28T09:54:38.110Z,9.55
2022-09-28T09:57:11.064Z,8.93
2022-09-28T09:59:40.243Z,8.95
2022-09-28T10:02:13.079Z,10.37
2022-09-28T10:04:43.179Z,8.88
2022-09-28T10:07:14.264Z,10.13
2022-09-28T10:09:43.381Z,8.75
2022-09-28T10:12:15.250Z,10.32
2022-09-28T10:14:42.732Z,9.73
2022-09-28T10:17:11.616Z,9.45
2022-09-28T10:19:39.132Z,8.02
2022-09-28T10:22:07.336Z,8.32
2022-09-28T10:24:39.397Z,8.93
2022-09-28T10:27:08.419Z,8.43
2022-09-28T10:29:44.457Z,8.82
2022-09-28T10:32:23.189Z,8.60
2022-09-28T10:34:51.871Z,7.68
2022-09-28T10:37:19.402Z,8.85
2022-09-28T10:39:47.964Z,8.67
2022-09-28T10:42:20.069Z,8.60
2022-09-28T10:45:00.350Z,8.77
2022-09-28T10:47:30.555Z,8.63
2022-09-28T10:49:58.088Z,9.10
2022-09-28T10:52:35.013Z,8.10
2022-09-28T10:55:02.898Z,10.40
2022-09-28T10:57:33.787Z,10.18
2022-09-28T11:00:03.418Z,7.85
2022-09-28T11:02:35.688Z,8.02
2022-09-28T11:05:04.608Z,7.63
2022-09-28T11:07:32.931Z,7.15
2022-09-28T11:10:04.332Z,7.53
2022-09-28T11:12:36.394Z,6.10
2022-09-28T11:15:06.771Z,7.60
2022-09-28T11:17:38.518Z,6.77
2022-09-28T11:20:27.408Z,10.32
2022-09-28T11:22:56.581Z,7.72
2022-09-28T11:25:25.401Z,9.25
2022-09-28T11:27:57.535Z,7.55
2022-09-28T11:30:28.033Z,7.30
2022-09-28T11:32:58.264Z,6.57
2022-09-28T11:35:29.334Z,6.68
2022-09-28T11:38:04.602Z,6.53
2022-09-28T11:40:39.915Z,6.30
2022-09-28T11:43:15.803Z,5.47
2022-09-28T11:45:52.913Z,6.28
2022-09-28T11:48:24.130Z,6.03
2022-09-28T11:50:53.120Z,7.05
2022-09-28T11:53:23.323Z,6.00
2022-09-28T11:55:54.469Z,6.23
2022-09-28T11:58:25.706Z,5.80
2022-09-28T12:00:58.100Z,6.40
2022-09-28T12:03:29.296Z,5.38
2022-09-28T12:05:58.005Z,7.57
2022-09-28T12:08:27.648Z,6.60
2022-09-28T12:10:57.041Z,6.22
2022-09-28T12:13:27.448Z,5.93
2022-09-28T12:18:50.199Z,5.78
2022-09-28T12:21:29.152Z,8.37
2022-09-28T12:23:57.888Z,6.68
2022-09-28T12:26:29.304Z,5.45
2022-09-28T12:28:58.419Z,7.78
2022-09-28T12:31:32.577Z,5.53
2022-09-28T12:34:00.280Z,5.13
2022-09-28T12:36:32.576Z,5.45
2022-09-28T12:39:35.760Z,6.40
2022-09-28T12:42:07.892Z,5.28
2022-09-28T12:44:41.727Z,4.97
2022-09-28T12:47:19.442Z,4.27
2022-09-28T12:50:37.598Z,4.22
2022-09-28T12:52:43.542Z,4.55
2022-09-28T12:55:20.070Z,5.35
2022-09-28T12:57:53.162Z,4.70
2022-09-28T13:00:22.900Z,10.93
2022-09-28T13:03:00.840Z,6.35
2022-09-28T13:05:34.428Z,8.48
2022-09-28T13:08:06.020Z,4.32
2022-09-28T13:10:37.151Z,4.60
2022-09-28T13:13:15.265Z,3.90
2022-09-28T13:15:45.461Z,4.35
2022-09-28T13:18:17.358Z,3.72
2022-09-28T13:20:59.181Z,3.65
2022-09-28T13:23:28.512Z,3.75
2022-09-28T13:25:58.032Z,3.33
2022-09-28T13:28:27.388Z,3.30
2022-09-28T13:30:56.505Z,3.80
2022-09-28T13:33:28.123Z,3.22
2022-09-28T13:35:55.627Z,3.30
2022-09-28T13:38:43.626Z,3.53
2022-09-28T13:41:29.837Z,2.92
2022-09-28T13:44:24.353Z,2.85
2022-09-28T13:47:00.396Z,3.72
2022-09-28T13:49:37.474Z,3.20
2022-09-28T13:52:06.945Z,3.20
2022-09-28T13:54:42.216Z,3.17
2022-09-28T13:57:14.485Z,3.03
2022-09-28T13:59:47.382Z,3.45
2022-09-28T14:02:20.970Z,3.20
2022-09-28T14:04:58.107Z,3.50
2022-09-28T14:10:17.565Z,2.90
2022-09-28T14:12:46.252Z,3.42
2022-09-28T14:15:32.273Z,3.25
2022-09-28T14:18:01.685Z,3.17
2022-09-28T14:20:31.818Z,3.15
2022-09-28T14:23:15.606Z,3.53
2022-09-28T14:25:45.157Z,3.80
2022-09-28T14:28:32.616Z,3.13
2022-09-28T14:31:07.547Z,2.70
2022-09-28T14:33:35.617Z,3.40
2022-09-28T14:36:06.050Z,2.97
2022-09-28T14:38:52.893Z,3.53
2022-09-28T14:41:29.723Z,4.70
2022-09-28T14:44:02.600Z,3.10
2022-09-28T14:46:31.904Z,3.30
2022-09-28T14:49:01.744Z,3.75
2022-09-28T14:51:58.329Z,2.85
2022-09-28T14:54:26.568Z,3.85
2022-09-28T14:56:58.979Z,2.87
2022-09-28T14:59:27.913Z,3.20
2022-09-28T15:01:58.912Z,3.10
2022-09-28T15:04:28.259Z,3.35
2022-09-28T15:06:58.105Z,4.00
2022-09-28T15:09:28.668Z,4.00
2022-09-28T15:12:00.109Z,3.72
2022-09-28T15:14:28.848Z,4.25
2022-09-28T15:16:56.368Z,5.35
2022-09-28T15:19:28.012Z,3.42
2022-09-28T15:21:56.949Z,3.00
2022-09-28T15:24:24.881Z,3.00
2022-09-28T15:26:53.173Z,3.65
2022-09-28T15:29:22.755Z,3.03
2022-09-28T15:31:54.290Z,5.03
2022-09-28T15:34:46.403Z,3.53
2022-09-28T15:37:16.095Z,3.20
2022-09-28T15:39:44.503Z,3.00
2022-09-28T15:42:12.328Z,3.17
2022-09-28T15:44:43.032Z,3.40
2022-09-28T15:47:13.593Z,3.93
2022-09-28T15:49:42.936Z,4.32
2022-09-28T15:52:24.565Z,3.30
2022-09-28T15:54:52.067Z,3.67
2022-09-28T15:57:34.345Z,3.47
2022-09-28T16:00:02.168Z,3.30
2022-09-28T16:02:29.815Z,4.68
2022-09-28T16:04:58.957Z,4.53
2022-09-28T16:07:29.963Z,3.50
2022-09-28T16:09:58.755Z,3.78
2022-09-28T16:12:31.829Z,3.47
2022-09-28T16:15:00.439Z,3.22
2022-09-28T16:17:32.768Z,2.95
2022-09-28T16:20:01.896Z,2.60
2022-09-28T16:22:32.446Z,2.80
2022-09-28T16:25:00.825Z,2.87
2022-09-28T16:27:29.544Z,2.78
2022-09-28T16:30:05.213Z,3.03
2022-09-28T16:32:38.413Z,2.90
2022-09-28T16:35:16.726Z,2.78
2022-09-28T16:37:48.698Z,3.23
2022-09-28T16:40:16.423Z,2.80
2022-09-28T16:42:49.065Z,2.90
2022-09-28T16:45:19.796Z,2.88
2022-09-28T16:47:47.648Z,4.55
2022-09-28T16:50:16.946Z,2.70
2022-09-28T16:53:02.754Z,2.63
2022-09-28T16:55:40.076Z,3.38
2022-09-28T16:58:08.383Z,3.05
2022-09-28T17:00:36.221Z,3.33
2022-09-28T17:03:05.312Z,3.83
2022-09-28T17:05:32.840Z,3.60
2022-09-28T17:08:02.993Z,3.47
2022-09-28T17:10:41.187Z,3.30
2022-09-28T17:13:21.521Z,4.70
2022-09-28T17:15:50.327Z,4.10
2022-09-28T17:18:18.598Z,4.07
2022-09-28T17:20:48.184Z,5.28
2022-09-28T17:23:17.389Z,6.30
2022-09-28T17:25:45.367Z,6.53
2022-09-28T17:28:18.678Z,5.53
2022-09-28T17:30:46.343Z,5.38
2022-09-28T17:33:14.595Z,4.60
2022-09-28T17:35:42.357Z,4.28
2022-09-28T17:38:10.833Z,4.85
2022-09-28T17:40:39.942Z,4.97
2022-09-28T17:43:07.585Z,4.30
2022-09-28T17:45:38.904Z,4.43
2022-09-28T17:48:06.645Z,4.35
2022-09-28T17:50:35.204Z,4.72
2022-09-28T17:53:06.071Z,5.50
2022-09-28T17:55:34.697Z,4.53
2022-09-28T17:58:09.661Z,6.03
2022-09-28T18:00:37.262Z,8.82
2022-09-28T18:03:04.921Z,5.88
2022-09-28T18:05:32.472Z,5.30
2022-09-28T18:07:59.989Z,7.18
2022-09-28T18:10:27.575Z,7.88
2022-09-28T18:12:55.222Z,6.57
2022-09-28T18:15:24.062Z,7.35
2022-09-28T18:17:51.573Z,6.70
2022-09-28T18:20:19.099Z,6.28
2022-09-28T18:22:46.592Z,6.32
2022-09-28T18:25:14.121Z,5.50
2022-09-28T18:27:41.718Z,5.80
2022-09-28T18:30:09.590Z,5.07
2022-09-28T18:32:38.904Z,6.53
2022-09-28T18:35:07.285Z,6.43
2022-09-28T18:37:37.369Z,6.90
2022-09-28T18:40:05.330Z,5.82
2022-09-28T18:42:35.530Z,7.37
2022-09-28T18:45:03.116Z,5.75
2022-09-28T18:47:30.632Z,6.32
2022-09-28T18:49:59.713Z,6.63
2022-09-28T18:52:27.267Z,5.50
2022-09-28T18:54:54.810Z,5.97
2022-09-28T18:57:22.621Z,6.47
2022-09-28T18:59:50.163Z,5.00
2022-09-28T19:02:17.757Z,5.50
2022-09-28T19:04:45.381Z,5.78
2022-09-28T19:07:14.209Z,6.43
2022-09-28T19:09:44.206Z,5.97
2022-09-28T19:12:11.756Z,6.93
2022-09-28T19:14:39.260Z,5.82
2022-09-28T19:17:06.849Z,6.53
2022-09-28T19:19:34.627Z,7.10
2022-09-28T19:22:02.622Z,7.57
2022-09-28T19:24:31.916Z,5.93
2022-09-28T19:26:59.404Z,6.25
2022-09-28T19:29:27.014Z,9.38
2022-09-28T19:31:56.697Z,8.20
2022-09-28T19:34:27.008Z,7.68
2022-09-28T19:36:54.593Z,9.15
2022-09-28T19:39:22.082Z,9.45
2022-09-28T19:41:51.531Z,11.32
2022-09-28T19:44:24.601Z,10.17
2022-09-28T19:46:53.665Z,8.88
2022-09-28T19:49:22.277Z,9.25
2022-09-28T19:54:38.274Z,8.68
2022-09-28T19:57:08.632Z,11.53
2022-09-28T19:59:36.643Z,11.82
2022-09-28T20:02:04.609Z,11.93
2022-09-28T20:04:32.176Z,11.52
2022-09-28T20:06:59.653Z,12.68
2022-09-28T20:09:27.231Z,11.10
2022-09-28T20:11:55.016Z,13.30
2022-09-28T20:14:26.023Z,9.63
2022-09-28T20:16:58.187Z,11.68
2022-09-28T20:19:26.207Z,10.38
2022-09-28T20:21:53.931Z,10.40
2022-09-28T20:24:21.450Z,10.55
2022-09-28T20:26:49.591Z,10.32
2022-09-28T20:29:17.528Z,9.20
2022-09-28T20:31:46.347Z,10.95
2022-09-28T20:34:13.849Z,9.43
2022-09-28T20:36:44.642Z,7.60
2022-09-28T20:39:12.662Z,8.85
2022-09-28T20:41:41.124Z,7.72
2022-09-28T20:44:09.579Z,8.20
2022-09-28T20:46:37.309Z,9.77
2022-09-28T20:49:07.179Z,6.95
2022-09-28T20:51:34.655Z,7.55
2022-09-28T20:54:02.178Z,7.43
2022-09-28T20:56:30.596Z,8.00
2022-09-28T20:58:58.235Z,6.87
